KSUS/SUS METAR and TAF weather

Enter ICAO airport designator
Station Type Date Time Source
KSUS METAR 2019/02/20 22:54 UTC NOAA

KSUS 202254Z 25011G16KT 10SM BKN032 05/01 A2988 RMK AO2 SLP124 T00500006


Station Type Date Time Source
KSUS Decoded METAR 2019/02/20 22:54 UTC NOAA

SPIRIT OF ST. LOUIS AIRPORT , MO, United States (KSUS) 38-39N 090-39W 141M
Feb 20, 2019 - 05:54 PM EST / 2019.02.20 2254 UTC
Wind: from the WSW (250 degrees) at 13 MPH (11 KT) gusting to 18 MPH (16 KT):0
Visibility: 10 mile(s):0
Sky conditions: mostly cloudy
Temperature: 41.0 F (5.0 C)
Dew Point: 33.1 F (0.6 C)
Relative Humidity: 73%
Pressure (altimeter): 29.88 in. Hg (1011 hPa)
ob: KSUS 202254Z 25011G16KT 10SM BKN032 05/01 A2988 RMK AO2 SLP124 T00500006
cycle: 23

Station Type Date Time Source
KSUS TAF 2019/02/20 22:30 UTC NOAA

TAF
AMD KSUS 202228Z 2022/2118 25010KT P6SM BKN025
FM210200 25007KT P6SM BKN250


Example: see airport list